createdAt,value
2022-11-24T00:04:24.581Z,4.6
2022-11-24T00:09:24.536Z,4.6
2022-11-24T00:14:24.535Z,4.6
2022-11-24T00:19:24.538Z,4.7
2022-11-24T00:24:24.546Z,4.8
2022-11-24T00:29:24.633Z,4.9
2022-11-24T00:34:24.565Z,5
2022-11-24T00:39:24.546Z,5.1
2022-11-24T00:44:24.607Z,5.3
2022-11-24T00:49:24.596Z,5.3
2022-11-24T00:54:24.656Z,5.4
2022-11-24T00:59:24.649Z,5.5
2022-11-24T01:04:24.596Z,5.6
2022-11-24T01:09:24.574Z,5.7
2022-11-24T01:14:24.585Z,5.7
2022-11-24T01:19:25.799Z,5.7
2022-11-24T01:24:24.778Z,5.7
2022-11-24T01:29:24.524Z,5.6
2022-11-24T01:34:24.632Z,5.6
2022-11-24T01:39:24.540Z,5.6
2022-11-24T01:44:24.567Z,5.7
2022-11-24T01:49:24.593Z,5.7
2022-11-24T01:54:24.526Z,5.6
2022-11-24T01:59:24.528Z,5.6
2022-11-24T02:04:24.560Z,5.7
2022-11-24T02:09:24.596Z,5.7
2022-11-24T02:14:24.542Z,5.6
2022-11-24T02:19:24.600Z,5.6
2022-11-24T02:24:24.571Z,5.6
2022-11-24T02:29:24.525Z,5.7
2022-11-24T02:34:24.491Z,5.7
2022-11-24T02:39:24.542Z,5.8
2022-11-24T02:44:24.522Z,5.8
2022-11-24T02:49:24.562Z,5.8
2022-11-24T02:54:24.531Z,5.9
2022-11-24T02:59:24.600Z,5.9
2022-11-24T03:04:24.583Z,5.9
2022-11-24T03:09:24.646Z,5.9
2022-11-24T03:14:24.563Z,5.9
2022-11-24T03:19:24.748Z,6
2022-11-24T03:24:24.620Z,5.9
2022-11-24T03:29:24.581Z,6.1
2022-11-24T03:34:24.539Z,6.1
2022-11-24T03:39:24.845Z,6.1
2022-11-24T03:44:24.516Z,6
2022-11-24T03:49:24.585Z,6.1
2022-11-24T03:54:24.701Z,6.1
2022-11-24T03:59:24.726Z,6.1
2022-11-24T04:04:24.570Z,6.1
2022-11-24T04:09:24.816Z,6.1
2022-11-24T04:14:24.713Z,6.1
2022-11-24T04:19:24.744Z,6
2022-11-24T04:24:24.532Z,6
2022-11-24T04:29:24.557Z,6.1
2022-11-24T04:34:24.517Z,6.1
2022-11-24T04:39:26.640Z,6.1
2022-11-24T04:44:24.546Z,6.1
2022-11-24T04:49:24.564Z,6
2022-11-24T04:54:24.597Z,6
2022-11-24T04:59:24.613Z,5.9
2022-11-24T05:04:24.669Z,6.1
2022-11-24T05:09:36.857Z,6.1
2022-11-24T05:14:24.589Z,6.1
2022-11-24T05:19:26.281Z,6.1
2022-11-24T05:24:24.522Z,6.1
2022-11-24T05:29:24.579Z,6.1
2022-11-24T05:34:24.622Z,6
2022-11-24T05:39:24.681Z,6.1
2022-11-24T05:44:24.573Z,6.1
2022-11-24T05:49:24.508Z,6
2022-11-24T05:54:24.636Z,5.9
2022-11-24T05:59:24.544Z,5.8
2022-11-24T06:04:24.539Z,5.6
2022-11-24T06:09:24.778Z,5.7
2022-11-24T06:14:24.566Z,5.6
2022-11-24T06:19:24.608Z,5.5
2022-11-24T06:24:24.566Z,5.4
2022-11-24T06:29:24.600Z,5.4
2022-11-24T06:34:24.680Z,5.4
2022-11-24T06:39:24.823Z,5.3
2022-11-24T06:44:24.645Z,5.3
2022-11-24T06:49:24.781Z,5.1
2022-11-24T06:54:24.615Z,5.1
2022-11-24T06:59:24.595Z,5.3
2022-11-24T07:04:24.659Z,5.4
2022-11-24T07:09:24.548Z,5.4
2022-11-24T07:14:24.530Z,5.6
2022-11-24T07:19:25.289Z,5.6
2022-11-24T07:24:24.609Z,5.6
2022-11-24T07:29:24.605Z,5.7
2022-11-24T07:34:24.590Z,5.8
2022-11-24T07:39:24.783Z,6
2022-11-24T07:44:24.748Z,5.9
2022-11-24T07:49:24.767Z,5.9
2022-11-24T07:54:24.620Z,6
2022-11-24T07:59:24.612Z,6
2022-11-24T08:04:24.595Z,6.3
2022-11-24T08:09:24.584Z,6.4
2022-11-24T08:14:24.562Z,6.5
2022-11-24T08:19:24.563Z,6.4
2022-11-24T08:24:24.588Z,6.4
2022-11-24T08:29:24.561Z,6.4
2022-11-24T08:34:24.640Z,6.4
2022-11-24T08:39:24.694Z,6.4
2022-11-24T08:44:24.626Z,6.3
2022-11-24T08:49:24.614Z,6.3
2022-11-24T08:54:24.623Z,6.6
2022-11-24T08:59:24.680Z,6.7
2022-11-24T09:04:24.647Z,6.8
2022-11-24T09:09:24.558Z,6.8
2022-11-24T09:14:24.557Z,6.9
2022-11-24T09:19:24.573Z,6.9
2022-11-24T09:24:24.551Z,6.9
2022-11-24T09:29:24.566Z,6.9
2022-11-24T09:34:24.552Z,6.8
2022-11-24T09:39:24.642Z,6.7
2022-11-24T09:44:24.645Z,6.8
2022-11-24T09:49:24.716Z,6.8
2022-11-24T09:54:24.626Z,7
2022-11-24T09:59:24.676Z,7
2022-11-24T10:04:24.670Z,6.9
2022-11-24T10:09:24.563Z,6.8
2022-11-24T10:14:24.586Z,6.6
2022-11-24T10:19:30.499Z,6.5
2022-11-24T10:24:24.606Z,6.4
2022-11-24T10:29:24.611Z,6.3
2022-11-24T10:34:24.558Z,6.3
2022-11-24T10:39:24.666Z,6.3
2022-11-24T10:44:24.602Z,6.2
2022-11-24T10:49:24.689Z,6.3
2022-11-24T10:54:24.610Z,6.4
2022-11-24T10:59:24.634Z,6.4
2022-11-24T11:04:24.623Z,6.6
2022-11-24T11:09:24.623Z,6.6
2022-11-24T11:14:24.679Z,6.6
2022-11-24T11:19:47.129Z,6.8
2022-11-24T11:24:24.627Z,6.8
2022-11-24T11:34:29.921Z,6.7
2022-11-24T11:39:24.573Z,6.9
2022-11-24T11:44:24.594Z,6.9
2022-11-24T11:49:24.723Z,7
2022-11-24T11:54:24.814Z,7.1
2022-11-24T11:59:24.776Z,7.2
2022-11-24T12:04:24.579Z,7.1
2022-11-24T12:09:24.619Z,7.2
2022-11-24T12:14:24.624Z,8.3
2022-11-24T12:19:24.617Z,8.4
2022-11-24T12:24:24.661Z,8.4
2022-11-24T12:29:24.648Z,8.5
2022-11-24T12:34:24.581Z,9.1
2022-11-24T12:39:24.604Z,9.2
2022-11-24T12:44:24.621Z,8.6
2022-11-24T12:49:24.621Z,8.5
2022-11-24T12:54:24.576Z,8.6
2022-11-24T12:59:24.675Z,8.8
2022-11-24T13:04:24.644Z,8.4
2022-11-24T13:09:24.613Z,8.9
2022-11-24T13:14:24.686Z,8.6
2022-11-24T13:19:24.628Z,8.7
2022-11-24T13:24:24.712Z,8.9
2022-11-24T13:29:25.565Z,8.4
2022-11-24T13:34:24.804Z,8.1
2022-11-24T13:39:24.761Z,8.1
2022-11-24T13:44:24.626Z,8.1
2022-11-24T13:49:24.673Z,8.6
2022-11-24T13:54:24.574Z,8.9
2022-11-24T13:59:24.696Z,9.1
2022-11-24T14:04:32.468Z,8.5
2022-11-24T14:09:24.711Z,8.4
2022-11-24T14:14:24.695Z,8.3
2022-11-24T14:19:26.697Z,8.1
2022-11-24T14:24:24.702Z,8
2022-11-24T14:29:24.599Z,7.8
2022-11-24T14:34:24.611Z,7.8
2022-11-24T14:39:24.683Z,7.7
2022-11-24T14:44:24.619Z,7.7
2022-11-24T14:49:24.607Z,7.6
2022-11-24T14:54:24.690Z,7.7
2022-11-24T14:59:25.787Z,7.6
2022-11-24T15:05:01.345Z,7.5
2022-11-24T15:09:24.621Z,7.4
2022-11-24T15:14:24.619Z,7.5
2022-11-24T15:19:24.691Z,7.4
2022-11-24T15:24:24.621Z,7.3
2022-11-24T15:29:24.614Z,7.1
2022-11-24T15:34:24.713Z,6.9
2022-11-24T15:39:24.699Z,6.8
2022-11-24T15:44:24.685Z,6.8
2022-11-24T15:49:24.792Z,6.6
2022-11-24T15:54:24.645Z,6.5
2022-11-24T15:59:24.751Z,6.5
2022-11-24T16:04:24.697Z,6.4
2022-11-24T16:09:24.662Z,6.4
2022-11-24T16:14:24.596Z,6.4
2022-11-24T16:19:24.564Z,6.3
2022-11-24T16:24:24.677Z,6.3
2022-11-24T16:29:24.673Z,6.4
2022-11-24T16:34:24.617Z,6.4
2022-11-24T16:39:24.730Z,6.4
2022-11-24T16:44:24.741Z,6.3
2022-11-24T16:49:24.690Z,6.3
2022-11-24T16:54:24.747Z,6.3
2022-11-24T16:59:24.738Z,6.1
2022-11-24T17:04:24.684Z,6.1
2022-11-24T17:09:24.643Z,6
2022-11-24T17:19:35.474Z,5.9
2022-11-24T17:24:24.962Z,5.8
2022-11-24T17:29:24.713Z,5.7
2022-11-24T17:34:24.684Z,5.8
2022-11-24T17:39:25.335Z,5.7
2022-11-24T17:44:24.990Z,5.6
2022-11-24T17:49:25.212Z,5.6
2022-11-24T17:54:45.188Z,5.4
2022-11-24T17:59:24.803Z,5.4
2022-11-24T18:09:24.758Z,5.4
2022-11-24T18:14:24.666Z,5.3
2022-11-24T18:19:24.635Z,5.2
2022-11-24T18:24:24.633Z,5
2022-11-24T18:29:24.649Z,4.9
2022-11-24T18:34:24.667Z,4.7
2022-11-24T18:39:25.447Z,4.5
2022-11-24T18:59:24.891Z,4.4
2022-11-24T19:04:25.222Z,4.4
2022-11-24T19:09:24.979Z,4.4
2022-11-24T19:19:24.956Z,4.4
2022-11-24T19:24:30.727Z,4.5
2022-11-24T19:29:24.902Z,4.6
2022-11-24T19:34:24.669Z,4.7
2022-11-24T19:39:24.694Z,4.8
2022-11-24T19:44:24.724Z,4.7
2022-11-24T19:49:24.867Z,4.6
2022-11-24T19:54:24.743Z,4.6
2022-11-24T19:59:24.775Z,4.6
2022-11-24T20:04:25.074Z,4.5
2022-11-24T20:09:24.923Z,4.4
2022-11-24T20:14:24.934Z,4.3
2022-11-24T20:19:24.744Z,4.2
2022-11-24T20:24:36.099Z,4.3
2022-11-24T20:34:56.452Z,4.2
2022-11-24T20:39:24.713Z,4.2
2022-11-24T20:44:24.644Z,4
2022-11-24T20:49:24.858Z,3.8
2022-11-24T20:54:24.914Z,3.7
2022-11-24T20:59:24.706Z,3.6
2022-11-24T21:04:24.658Z,3.3
2022-11-24T21:09:24.770Z,3.2
2022-11-24T21:14:24.641Z,3.1
2022-11-24T21:19:24.920Z,2.9
2022-11-24T21:24:24.683Z,2.7
2022-11-24T21:29:24.945Z,2.6
2022-11-24T21:34:24.800Z,2.5
2022-11-24T21:39:24.774Z,2.4
2022-11-24T21:44:24.722Z,2.4
2022-11-24T21:49:24.812Z,2.6
2022-11-24T21:54:25.038Z,2.8
2022-11-24T21:59:24.731Z,2.6
2022-11-24T22:04:25.046Z,3
2022-11-24T22:09:24.672Z,2.9
2022-11-24T22:14:24.745Z,2.8
2022-11-24T22:19:24.854Z,2.8
2022-11-24T22:24:27.184Z,2.6
2022-11-24T22:29:24.738Z,2.8
2022-11-24T22:34:25.051Z,2.6
2022-11-24T22:39:24.754Z,2.5
2022-11-24T22:44:24.770Z,2.3
2022-11-24T22:49:24.786Z,2.4
2022-11-24T22:54:24.913Z,2.3
2022-11-24T22:59:24.656Z,2.1
2022-11-24T23:04:25.185Z,2
2022-11-24T23:09:24.671Z,2.3
2022-11-24T23:14:24.729Z,2.3
2022-11-24T23:19:24.770Z,2.1
2022-11-24T23:24:24.913Z,1.9
2022-11-24T23:29:24.747Z,1.8
2022-11-24T23:34:25.034Z,1.5
2022-11-24T23:39:24.724Z,1.3
2022-11-24T23:44:24.732Z,1.3
2022-11-24T23:49:24.914Z,1.1
2022-11-24T23:54:24.757Z,1.2
2022-11-24T23:59:24.951Z,0.9
